This is the latest recevied weather packets stored in our database for station/object AB4BJ-10. If no packets are shown the sender has not sent any weather packets the latest 10 day(s).
| Time | Temp. | Humidity | Pressure | Rain* | Wind** | Luminosity | Snow |
|---|---|---|---|---|---|---|---|
| 1788028772 | 31.67° C | 64% | 1015.7 hPa | 0 mm | - | - | - |
| 1788027874 | 31.67° C | 66% | 1015.8 hPa | 0 mm | - | - | - |
| 1788027571 | 32.22° C | 65% | 1015.8 hPa | 0 mm | - | - | - |
| 1788027277 | 31.67° C | 66% | 1016 hPa | 0 mm | - | - | - |
| 1788026971 | 31.67° C | 67% | 1016.1 hPa | 0 mm | - | - | - |
| 1788026671 | 31.67° C | 67% | 1016.1 hPa | 0 mm | - | - | - |
| 1788026370 | 31.11° C | 70% | 1016.2 hPa | 0 mm | - | - | - |
| 1788026070 | 30.56° C | 70% | 1016.2 hPa | 0 mm | - | - | - |
| 1788025770 | 31.11° C | 69% | 1016.2 hPa | 0 mm | - | - | - |
| 1788025472 | 31.11° C | 69% | 1016.3 hPa | 0 mm | - | - | - |
| 1788025173 | 30.56° C | 69% | 1016.3 hPa | 0 mm | - | - | - |
| 1788024569 | 30° C | 73% | 1016.5 hPa | 0 mm | - | - | - |
| 1788024268 | 29.44° C | 75% | 1016.6 hPa | 0 mm | - | - | - |
| 1788023968 | 29.44° C | 73% | 1016.7 hPa | 0 mm | - | - | - |
| 1788023668 | 30° C | 72% | 1016.7 hPa | 0 mm | - | - | - |
| 1788023472 | 30° C | 73% | 1016.8 hPa | 0 mm | - | - | - |
| 1788023403 | 30° C | 73% | 1016.8 hPa | 0 mm | - | - | - |
| 1788023367 | 30° C | 73% | 1016.8 hPa | 0 mm | - | - | - |
| 1788023313 | 30° C | 72% | 1016.8 hPa | 0 mm | - | - | - |
| 1788023067 | 30° C | 72% | 1016.8 hPa | 0 mm | - | - | - |
| 1788022467 | 29.44° C | 74% | 1017 hPa | 0 mm | - | - | - |
| 1788022167 | 28.89° C | 76% | 1017 hPa | 0 mm | - | - | - |
| 1788021866 | 28.89° C | 75% | 1017 hPa | 0 mm | - | - | - |
| 1788021565 | 29.44° C | 74% | 1017.1 hPa | 0 mm | - | - | - |
| 1788021266 | 28.89° C | 75% | 1017.2 hPa | 0 mm | - | - | - |
* Rain latest hour (hover to see other rain measurements)
** Current wind speed in m/s (hover to see current wind gust speed)